首页
METAR-TAF:

METAR-TAF

机场 :

尼亞美, 尼日尔

迪奥里·哈马尼国际机场

纬度: 13-29N, 经度: 002-10E, 海拔: 223米

当前天气观测

该预报发布于28分钟前的14:00 UTC
风速13节,风向,有时为23节阵风,在东转东北南转南东之间变化
温度 32°C
湿度 5%
气压 1012 hPa
能見度: 8000

METAR: DRRN 221400Z 09013G23KT 060V150 8000 NSC 32/M12 Q1012 NOSIG

时间: 15:28 (14:28 UTC)

预报

该预报发布于9小时和28分钟前的05:00 UTC
预报有效从22日的 06点(UTC)到 23日的 12点(UTC)
风速10节,风向东转东北
能見度: 6000
短暂存在
从 22日的 06点(UTC)到 22日的 08点(UTC)
能見度: 4000
浮尘
短暂存在
从 22日的 09点(UTC)到 22日的 12点(UTC)
风速20节,风向
能見度: 3500
高吹尘
短暂存在
从 22日的 17点(UTC)到 22日的 20点(UTC)
能見度: 3500
浮尘

TAF: DRRN 220500Z 2206/2312 06010KT 6000 NSC TEMPO 2206/2208 4000 DU TEMPO 2209/2212 10020KT 3500 BLDU TEMPO 2217/2220 3500 DU

超过4000个机场的气象观测和天气预报(METAR&TAF报告)。

可查询的气象台以黄色和红色小点在地图上表示。

将鼠标移到小点上方,可查看气象台名称。

然后点击查看天气观测和预报。

如需切换地图:点击带黑十字的绿色按钮放大地图;点击带横线的绿色按钮缩小地图;或者点击绿色箭头查看邻近地区的地图。


METAR-TAF: